Petrozavodsk, Russia
Current Conditions -  °F | °C
As of 6:00 AM on Thursday 23 Oct 2014 (Local Time) from ULPB Reporting Station
NA  
Wind Chill: 11°   Ceiling: NA
Heat Index: 21°   Visibility: 6mi
Dew Point: 18°   Wind: 9mph
Humidity: 86%   Direction: 10°N
Pressure: 30.48"   Gusts: NA
Location:  61.82°N, 34.33°E
Report Text: ULPB 230300Z AUTO 01004MPS 350V050 9999 ////// M06/M08 Q1032
Loading
Personal Weather Stations






























Interactive Weather Map
Tropical Storm Tracking
New forecast layout! Learn more

10-Day Weather Forecast

Advertisements
Track Severe Weather on mobile